Time;durP1;ratioP1;P1;durP2;ratioP2;P2;SDS_P1;SDS_P2;PMS_P1;PMS_P2;Temp;Humidity;BMP_temperature;BMP_pressure;BME280_temperature;BME280_humidity;BME280_pressure;Samples;Min_cycle;Max_cycle;Signal;HPM_P1;HPM_P2
2022/09/17 00:03:11;;;;;;;;;;;;;;;11.34;100.00;95853.84;10383685;28;96793;-59
2022/09/17 00:08:14;;;;;;;;;;;;;;;11.34;100.00;95860.91;10408652;28;96870;-60
2022/09/17 00:13:17;;;;;;;;;;;;;;;11.39;100.00;95857.81;10372945;28;96751;-59
2022/09/17 00:18:21;;;;;;;;;;;;;;;11.44;100.00;95866.78;10344921;28;96852;-59
2022/09/17 00:23:24;;;;;;;;;;;;;;;11.50;100.00;95870.56;10383855;28;97000;-59
2022/09/17 00:28:26;;;;;;;;;;;;;;;11.54;100.00;95877.13;10372726;28;96766;-59
2022/09/17 00:33:30;;;;;;;;;;;;;;;11.59;100.00;95874.81;10378404;28;96750;-59
2022/09/17 00:38:33;;;;;;;;;;;;;;;11.58;100.00;95878.41;10379080;28;96728;-59
2022/09/17 00:43:37;;;;;;;;;;;;;;;11.53;100.00;95878.06;10379863;28;96826;-59
2022/09/17 00:48:41;;;;;;;;;;;;;;;11.45;100.00;95880.69;10348333;28;97979;-59
2022/09/17 00:53:44;;;;;;;;;;;;;;;11.33;100.00;95888.84;10338013;28;97867;-60
2022/09/17 00:58:47;;;;;;;;;;;;;;;11.27;100.00;95891.25;10337987;28;96874;-59
2022/09/17 01:03:51;;;;;;;;;;;;;;;11.16;100.00;95887.16;10369872;28;96834;-59
2022/09/17 01:09:00;;;;;;;;;;;;;;;11.03;100.00;95878.94;10378898;28;96949;-59
2022/09/17 01:14:11;;;;;;;;;;;;;;;10.90;100.00;95872.38;10404534;28;96806;-59
2022/09/17 01:19:27;;;;;;;;;;;;;;;10.87;100.00;95869.25;10383115;28;96762;-60
2022/09/17 01:24:44;;;;;;;;;;;;;;;10.87;100.00;95875.28;10378677;28;96686;-59
2022/09/17 01:29:56;;;;;;;;;;;;;;;10.82;100.00;95876.75;10377507;28;96777;-59
2022/09/17 01:35:03;;;;;;;;;;;;;;;10.90;100.00;95877.59;10336333;28;96653;-60
2022/09/17 01:40:08;;;;;;;;;;;;;;;11.01;100.00;95880.91;10336835;28;97016;-59
2022/09/17 01:45:14;;;;;;;;;;;;;;;11.02;100.00;95893.00;10335849;28;97015;-60
2022/09/17 01:50:21;;;;;;;;;;;;;;;10.99;100.00;95892.31;10336206;28;97373;-59
2022/09/17 01:55:27;;;;;;;;;;;;;;;10.89;100.00;95873.34;10336480;28;97102;-59
2022/09/17 02:00:30;;;;;;;;;;;;;;;10.89;100.00;95894.25;10335795;28;96693;-59
2022/09/17 02:05:35;;;;;;;;;;;;;;;10.85;100.00;95886.91;10336516;28;96687;-59
2022/09/17 02:10:41;;;;;;;;;;;;;;;10.72;100.00;95884.72;10356280;28;96777;-60
2022/09/17 02:15:47;;;;;;;;;;;;;;;10.61;100.00;95891.03;10352172;28;96889;-59
2022/09/17 02:20:54;;;;;;;;;;;;;;;10.59;100.00;95896.41;10334499;28;96820;-59
2022/09/17 02:26:00;;;;;;;;;;;;;;;10.57;100.00;95898.38;10335128;28;96784;-59
2022/09/17 02:31:03;;;;;;;;;;;;;;;10.52;100.00;95897.22;10334394;28;97694;-59
2022/09/17 02:36:07;;;;;;;;;;;;;;;10.58;100.00;95897.41;10350665;28;98049;-60
2022/09/17 02:41:14;;;;;;;;;;;;;;;10.50;100.00;95899.97;10376022;28;96796;-59
2022/09/17 02:46:28;;;;;;;;;;;;;;;10.41;100.00;95906.13;10375085;28;96802;-59
2022/09/17 02:51:38;;;;;;;;;;;;;;;10.37;100.00;95910.84;10375491;28;96859;-60
2022/09/17 02:56:44;;;;;;;;;;;;;;;10.35;100.00;95911.97;10375756;28;97168;-59
2022/09/17 03:01:50;;;;;;;;;;;;;;;10.32;100.00;95913.09;10359080;28;97554;-60
2022/09/17 03:06:55;;;;;;;;;;;;;;;10.34;100.00;95905.09;10333702;28;97116;-60
2022/09/17 03:11:58;;;;;;;;;;;;;;;10.30;100.00;95907.19;10363758;28;97275;-59
2022/09/17 03:17:00;;;;;;;;;;;;;;;10.19;100.00;95910.06;10357863;28;97233;-59
2022/09/17 03:22:04;;;;;;;;;;;;;;;10.12;100.00;95904.63;10366986;28;97610;-59
2022/09/17 03:27:07;;;;;;;;;;;;;;;10.04;100.00;95902.81;10380483;28;96711;-59
2022/09/17 03:32:10;;;;;;;;;;;;;;;9.95;100.00;95926.38;10372907;28;96703;-59
2022/09/17 03:37:14;;;;;;;;;;;;;;;9.88;100.00;95922.72;10374448;28;97113;-59
2022/09/17 03:42:16;;;;;;;;;;;;;;;9.77;100.00;95919.38;10374706;28;97190;-59
2022/09/17 03:47:19;;;;;;;;;;;;;;;9.70;100.00;95918.34;10354789;28;97677;-59
2022/09/17 03:52:23;;;;;;;;;;;;;;;9.59;100.00;95926.38;10332836;28;97207;-59
2022/09/17 03:57:25;;;;;;;;;;;;;;;9.54;100.00;95929.47;10332657;28;96780;-59
2022/09/17 04:02:28;;;;;;;;;;;;;;;9.45;100.00;95946.81;10351663;28;96779;-59
2022/09/17 04:07:32;;;;;;;;;;;;;;;9.42;100.00;95967.09;10373372;28;96993;-60
2022/09/17 04:12:35;;;;;;;;;;;;;;;9.52;100.00;95964.47;10372630;28;97252;-60
2022/09/17 04:17:37;;;;;;;;;;;;;;;9.55;100.00;95961.56;10350958;28;97016;-59
2022/09/17 04:22:41;;;;;;;;;;;;;;;9.54;100.00;95950.31;10332024;28;96794;-59
2022/09/17 04:27:44;;;;;;;;;;;;;;;9.48;100.00;95950.91;10331499;28;97179;-59
2022/09/17 04:32:46;;;;;;;;;;;;;;;9.38;100.00;95961.34;10331697;28;97001;-59
2022/09/17 04:37:54;;;;;;;;;;;;;;;9.32;100.00;95971.56;10332387;28;97009;-59
2022/09/17 04:42:58;;;;;;;;;;;;;;;9.24;100.00;95985.31;10402360;28;97412;-59
2022/09/17 04:48:01;;;;;;;;;;;;;;;9.16;100.00;95990.44;10387442;28;96918;-59
2022/09/17 04:53:05;;;;;;;;;;;;;;;9.08;100.00;96002.41;10371407;28;96938;-60
2022/09/17 04:58:08;;;;;;;;;;;;;;;8.99;100.00;95995.47;10372495;28;96726;-59
2022/09/17 05:03:10;;;;;;;;;;;;;;;9.03;100.00;96014.22;10345063;28;97010;-59
2022/09/17 05:08:14;;;;;;;;;;;;;;;9.02;100.00;96010.81;10331588;28;96769;-59
2022/09/17 05:13:17;;;;;;;;;;;;;;;9.04;100.00;96021.91;10371211;28;96848;-59
2022/09/17 05:18:19;;;;;;;;;;;;;;;9.07;100.00;96032.06;10347193;28;97313;-59
2022/09/17 05:23:23;;;;;;;;;;;;;;;9.06;100.00;96025.19;10337601;28;96810;-59
2022/09/17 05:28:26;;;;;;;;;;;;;;;9.01;100.00;96024.78;10337806;28;96883;-59
2022/09/17 05:33:29;;;;;;;;;;;;;;;8.98;100.00;96038.09;10365385;28;96827;-59
2022/09/17 05:38:32;;;;;;;;;;;;;;;8.98;100.00;96043.31;10378544;28;96810;-59
2022/09/17 05:43:35;;;;;;;;;;;;;;;9.08;100.00;96041.50;10377158;28;97056;-59
2022/09/17 05:48:38;;;;;;;;;;;;;;;9.20;100.00;96049.94;10404037;27;96902;-59
2022/09/17 05:53:42;;;;;;;;;;;;;;;9.28;100.00;96042.25;10419193;27;97700;-59
2022/09/17 05:58:44;;;;;;;;;;;;;;;9.34;100.00;96042.63;10419326;28;97204;-59
2022/09/17 06:03:47;;;;;;;;;;;;;;;9.41;100.00;96047.09;10386763;28;98637;-59
2022/09/17 06:08:50;;;;;;;;;;;;;;;9.53;100.00;96047.78;10376855;28;96845;-59
2022/09/17 06:13:53;;;;;;;;;;;;;;;9.74;100.00;96050.09;10376838;28;96659;-59
2022/09/17 06:18:56;;;;;;;;;;;;;;;9.82;100.00;96052.81;10344621;28;96853;-59
2022/09/17 06:24:00;;;;;;;;;;;;;;;9.85;100.00;96057.75;10334716;28;96815;-59
2022/09/17 06:29:02;;;;;;;;;;;;;;;9.81;100.00;96058.97;10333678;28;97165;-59
2022/09/17 06:34:05;;;;;;;;;;;;;;;9.78;100.00;96056.66;10381819;28;97406;-59
2022/09/17 06:39:10;;;;;;;;;;;;;;;9.72;100.00;96051.25;10404605;28;97179;-60
2022/09/17 06:44:13;;;;;;;;;;;;;;;9.69;100.00;96065.38;10334843;28;96728;-59
2022/09/17 06:49:16;;;;;;;;;;;;;;;9.64;100.00;96054.56;10334669;28;96970;-59
2022/09/17 06:54:20;;;;;;;;;;;;;;;9.72;100.00;96067.69;10334558;28;96934;-59
2022/09/17 06:59:23;;;;;;;;;;;;;;;9.91;100.00;96079.81;10351627;28;98270;-59
2022/09/17 07:04:25;;;;;;;;;;;;;;;10.05;100.00;96078.47;10374337;28;97588;-59
2022/09/17 07:09:29;;;;;;;;;;;;;;;10.15;100.00;96070.56;10383445;28;96817;-59
2022/09/17 07:14:32;;;;;;;;;;;;;;;10.18;100.00;96068.50;10416584;28;96757;-59
2022/09/17 07:19:34;;;;;;;;;;;;;;;10.16;100.00;96070.41;10377050;27;97188;-59
2022/09/17 07:24:38;;;;;;;;;;;;;;;10.11;100.00;96082.28;10399158;28;97080;-59
2022/09/17 07:29:41;;;;;;;;;;;;;;;10.02;100.00;96087.41;10416427;28;97286;-59
2022/09/17 07:34:43;;;;;;;;;;;;;;;10.01;100.00;96084.97;10374605;27;98132;-59
2022/09/17 07:39:47;;;;;;;;;;;;;;;9.97;100.00;96078.38;10373137;28;96925;-59
2022/09/17 07:44:50;;;;;;;;;;;;;;;9.99;100.00;96095.56;10374116;28;96799;-59
2022/09/17 07:49:52;;;;;;;;;;;;;;;10.07;100.00;96101.81;10373322;28;96690;-59
2022/09/17 07:54:56;;;;;;;;;;;;;;;10.14;100.00;96108.09;10373804;28;96964;-59
2022/09/17 07:59:59;;;;;;;;;;;;;;;10.35;100.00;96094.72;10411013;28;97190;-60
2022/09/17 08:05:01;;;;;;;;;;;;;;;10.40;100.00;96098.53;10331468;28;97238;-59
2022/09/17 08:10:06;;;;;;;;;;;;;;;10.58;100.00;96100.31;10355189;28;97504;-59
2022/09/17 08:15:08;;;;;;;;;;;;;;;10.78;100.00;96099.16;10395653;28;96782;-59
2022/09/17 08:20:11;;;;;;;;;;;;;;;11.04;100.00;96095.75;10331449;28;96861;-59
2022/09/17 08:25:15;;;;;;;;;;;;;;;10.99;100.00;96104.03;10344036;28;96715;-59
2022/09/17 08:30:17;;;;;;;;;;;;;;;10.96;100.00;96101.75;10404130;28;96831;-59
2022/09/17 08:35:20;;;;;;;;;;;;;;;10.98;100.00;96110.25;10386469;28;97872;-59
2022/09/17 08:40:26;;;;;;;;;;;;;;;11.01;100.00;96122.19;10391943;28;97915;-59
2022/09/17 08:45:29;;;;;;;;;;;;;;;11.07;100.00;96126.81;10392925;28;97109;-60
2022/09/17 08:50:33;;;;;;;;;;;;;;;11.28;100.00;96129.06;10390517;27;97223;-60
2022/09/17 08:55:40;;;;;;;;;;;;;;;11.59;100.00;96144.31;10397453;28;96950;-59
2022/09/17 09:00:45;;;;;;;;;;;;;;;11.78;100.00;96145.84;10388848;28;97152;-59
2022/09/17 09:05:51;;;;;;;;;;;;;;;12.21;100.00;96151.06;10392700;28;97195;-59
2022/09/17 09:10:59;;;;;;;;;;;;;;;12.44;100.00;96149.47;10398732;28;97060;-60
2022/09/17 09:16:04;;;;;;;;;;;;;;;12.56;100.00;96155.22;10396562;28;97274;-60
2022/09/17 09:21:14;;;;;;;;;;;;;;;12.56;100.00;96163.09;10394685;28;97065;-59
2022/09/17 09:26:19;;;;;;;;;;;;;;;12.67;100.00;96154.09;10396641;28;97453;-59
2022/09/17 09:31:32;;;;;;;;;;;;;;;12.72;100.00;96164.91;10394193;27;97212;-61
2022/09/17 09:36:38;;;;;;;;;;;;;;;12.81;100.00;96157.88;10398071;28;96741;-59
2022/09/17 09:41:43;;;;;;;;;;;;;;;13.00;100.00;96167.25;10393304;28;97096;-60
2022/09/17 09:46:54;;;;;;;;;;;;;;;13.12;100.00;96163.28;10391035;28;97136;-59
2022/09/17 09:52:03;;;;;;;;;;;;;;;13.19;100.00;96166.88;10393059;27;97174;-60
2022/09/17 09:57:09;;;;;;;;;;;;;;;13.20;100.00;96168.53;10393548;28;97290;-59
2022/09/17 10:02:13;;;;;;;;;;;;;;;13.24;100.00;96169.03;10392940;28;97579;-60
2022/09/17 10:07:16;;;;;;;;;;;;;;;13.26;100.00;96172.28;10394246;28;97812;-60
2022/09/17 10:12:20;;;;;;;;;;;;;;;13.43;100.00;96178.34;10390936;28;96827;-60
2022/09/17 10:17:23;;;;;;;;;;;;;;;13.61;100.00;96192.06;10393670;28;97304;-59
2022/09/17 10:22:29;;;;;;;;;;;;;;;13.78;100.00;96186.78;10394967;28;96852;-61
2022/09/17 10:27:35;;;;;;;;;;;;;;;13.66;100.00;96198.63;10394185;28;96751;-60
2022/09/17 10:32:38;;;;;;;;;;;;;;;13.61;100.00;96193.88;10390538;28;96967;-59
2022/09/17 10:37:44;;;;;;;;;;;;;;;13.48;100.00;96190.94;10392052;28;98281;-60
2022/09/17 10:42:49;;;;;;;;;;;;;;;13.48;100.00;96199.66;10394274;28;97162;-60
2022/09/17 10:47:52;;;;;;;;;;;;;;;13.57;100.00;96198.66;10387811;28;96770;-60
2022/09/17 10:52:55;;;;;;;;;;;;;;;13.58;100.00;96187.13;10395324;27;96963;-61
2022/09/17 10:58:08;;;;;;;;;;;;;;;13.66;100.00;96183.69;10390485;28;96919;-60
2022/09/17 11:03:34;;;;;;;;;;;;;;;13.71;100.00;96178.75;10392065;28;97047;-59
2022/09/17 11:08:41;;;;;;;;;;;;;;;14.00;100.00;96185.22;10392974;28;97275;-60
2022/09/17 11:13:52;;;;;;;;;;;;;;;14.39;100.00;96167.84;10379163;28;98264;-60
2022/09/17 11:19:00;;;;;;;;;;;;;;;14.79;100.00;96184.34;10391647;28;96929;-59
2022/09/17 11:24:24;;;;;;;;;;;;;;;15.09;100.00;96180.78;10385886;28;97061;-60
2022/09/17 11:29:41;;;;;;;;;;;;;;;15.20;100.00;96181.38;10384004;28;96977;-62
2022/09/17 11:34:47;;;;;;;;;;;;;;;15.07;100.00;96174.09;10374584;28;97780;-59
2022/09/17 11:39:53;;;;;;;;;;;;;;;14.93;100.00;96180.94;10373405;28;96671;-60
2022/09/17 11:44:59;;;;;;;;;;;;;;;14.71;100.00;96179.94;10374485;28;97035;-60
2022/09/17 11:50:05;;;;;;;;;;;;;;;14.68;100.00;96175.84;10376017;28;97157;-59
2022/09/17 11:55:17;;;;;;;;;;;;;;;14.89;100.00;96175.22;10415789;28;97156;-59
2022/09/17 12:00:22;;;;;;;;;;;;;;;15.12;100.00;96180.44;10411603;28;96794;-60
2022/09/17 12:05:28;;;;;;;;;;;;;;;15.32;100.00;96170.25;10373454;28;96977;-59
2022/09/17 12:10:37;;;;;;;;;;;;;;;15.54;99.63;96169.53;10373490;28;97102;-60
2022/09/17 12:15:45;;;;;;;;;;;;;;;15.98;98.11;96152.94;10369268;28;97729;-59
2022/09/17 12:20:58;;;;;;;;;;;;;;;16.01;98.21;96153.38;10332408;28;96581;-59
2022/09/17 12:26:06;;;;;;;;;;;;;;;15.50;96.28;96156.72;10362615;27;98179;-60
2022/09/17 12:31:12;;;;;;;;;;;;;;;15.09;97.02;96143.97;10411526;27;97065;-60
2022/09/17 12:36:19;;;;;;;;;;;;;;;15.55;95.65;96150.94;10404764;28;96810;-60
2022/09/17 12:41:23;;;;;;;;;;;;;;;15.63;94.35;96140.34;10389210;28;96790;-60
2022/09/17 12:46:34;;;;;;;;;;;;;;;15.41;93.71;96135.91;10368559;28;98736;-60
2022/09/17 12:51:46;;;;;;;;;;;;;;;15.09;93.36;96122.09;10352717;27;97710;-60
2022/09/17 12:56:56;;;;;;;;;;;;;;;15.84;92.09;96125.59;10421697;27;96681;-60
2022/09/17 13:02:03;;;;;;;;;;;;;;;16.10;91.03;96127.75;10404488;27;97011;-60
2022/09/17 13:07:27;;;;;;;;;;;;;;;16.02;90.90;96127.88;10396008;28;96724;-60
2022/09/17 13:12:32;;;;;;;;;;;;;;;15.77;89.27;96136.06;10400921;28;96847;-60
2022/09/17 13:17:39;;;;;;;;;;;;;;;15.32;88.09;96132.56;10378928;27;96842;-60
2022/09/17 13:22:44;;;;;;;;;;;;;;;15.51;87.86;96133.84;10346409;28;97073;-59
2022/09/17 13:27:47;;;;;;;;;;;;;;;15.70;86.05;96135.16;10364870;28;96674;-60
2022/09/17 13:32:52;;;;;;;;;;;;;;;15.72;83.79;96133.19;10337404;28;97088;-60
2022/09/17 13:37:56;;;;;;;;;;;;;;;16.52;82.72;96134.09;10354716;28;97049;-60
2022/09/17 13:43:07;;;;;;;;;;;;;;;16.58;82.24;96137.81;10415168;27;97338;-60
2022/09/17 13:48:11;;;;;;;;;;;;;;;16.62;83.90;96136.41;10420118;28;96654;-60
2022/09/17 13:53:18;;;;;;;;;;;;;;;16.27;82.36;96138.88;10405510;28;96868;-60
2022/09/17 13:58:24;;;;;;;;;;;;;;;15.97;81.77;96140.78;10337413;28;98056;-60
2022/09/17 14:03:43;;;;;;;;;;;;;;;16.74;80.94;96149.91;10355034;28;96918;-60
2022/09/17 14:08:55;;;;;;;;;;;;;;;17.28;80.34;96141.47;10414082;27;96791;-59
2022/09/17 14:13:57;;;;;;;;;;;;;;;18.06;78.12;96141.31;10338823;28;97553;-60
2022/09/17 14:19:02;;;;;;;;;;;;;;;17.76;77.34;96146.84;10370867;28;97182;-59
2022/09/17 14:24:19;;;;;;;;;;;;;;;17.13;80.87;96157.41;10376645;28;97505;-60
2022/09/17 14:29:29;;;;;;;;;;;;;;;16.35;82.68;96148.53;10378965;28;96844;-59
2022/09/17 14:34:32;;;;;;;;;;;;;;;16.06;83.47;96144.94;10390736;28;96756;-60
2022/09/17 14:39:38;;;;;;;;;;;;;;;15.96;83.81;96144.41;10395408;28;97206;-60
2022/09/17 14:44:48;;;;;;;;;;;;;;;16.00;83.20;96140.41;10389482;28;96944;-60
2022/09/17 14:49:51;;;;;;;;;;;;;;;16.17;80.49;96141.84;10403088;27;96801;-59
2022/09/17 14:55:10;;;;;;;;;;;;;;;16.78;78.03;96133.56;10386253;28;97444;-59
2022/09/17 15:00:20;;;;;;;;;;;;;;;17.51;76.19;96137.78;10398926;27;96865;-59
2022/09/17 15:05:25;;;;;;;;;;;;;;;17.37;75.93;96145.59;10333454;28;97065;-59
2022/09/17 15:10:29;;;;;;;;;;;;;;;16.98;78.06;96154.84;10359991;28;97077;-60
2022/09/17 15:15:32;;;;;;;;;;;;;;;16.78;79.76;96159.13;10386672;27;96927;-60
2022/09/17 15:20:35;;;;;;;;;;;;;;;16.20;82.76;96172.25;10383706;28;96890;-59
2022/09/17 15:25:39;;;;;;;;;;;;;;;16.33;82.48;96171.59;10361473;28;97146;-59
2022/09/17 15:30:42;;;;;;;;;;;;;;;16.20;82.54;96165.16;10372495;28;96897;-61
2022/09/17 15:35:57;;;;;;;;;;;;;;;15.44;84.37;96173.25;10358821;28;96815;-59
2022/09/17 15:41:19;;;;;;;;;;;;;;;15.58;83.10;96162.91;10368116;28;97135;-60
2022/09/17 15:46:25;;;;;;;;;;;;;;;15.81;81.56;96168.94;10388369;28;96866;-59
2022/09/17 15:51:29;;;;;;;;;;;;;;;15.90;79.20;96171.50;10390089;28;97097;-59
2022/09/17 15:56:34;;;;;;;;;;;;;;;15.61;79.37;96183.66;10389697;28;96781;-59
2022/09/17 16:01:54;;;;;;;;;;;;;;;15.13;77.41;96176.81;10387914;28;96921;-60
2022/09/17 16:07:12;;;;;;;;;;;;;;;14.79;77.88;96176.44;10381946;28;97126;-59
2022/09/17 16:12:17;;;;;;;;;;;;;;;14.94;78.02;96178.13;10362754;28;98586;-60
2022/09/17 16:17:26;;;;;;;;;;;;;;;15.42;76.68;96183.13;10368584;28;96710;-59
2022/09/17 16:22:29;;;;;;;;;;;;;;;16.02;75.12;96185.84;10367885;28;96902;-59
2022/09/17 16:27:35;;;;;;;;;;;;;;;16.26;74.20;96171.53;10367417;28;97041;-60
2022/09/17 16:32:38;;;;;;;;;;;;;;;16.35;73.35;96185.44;10370651;28;97384;-60
2022/09/17 16:37:40;;;;;;;;;;;;;;;16.62;73.90;96182.09;10368486;28;98554;-60
2022/09/17 16:42:44;;;;;;;;;;;;;;;16.97;71.10;96187.53;10357242;28;97281;-60
2022/09/17 16:47:47;;;;;;;;;;;;;;;16.94;70.63;96185.25;10370066;28;96835;-59
2022/09/17 16:52:49;;;;;;;;;;;;;;;16.44;72.90;96190.38;10357183;28;97128;-61
2022/09/17 16:57:56;;;;;;;;;;;;;;;15.46;75.17;96184.44;10365922;28;97357;-59
2022/09/17 17:02:58;;;;;;;;;;;;;;;14.54;76.80;96195.00;10369985;28;97282;-59
2022/09/17 17:08:01;;;;;;;;;;;;;;;13.85;77.68;96200.06;10367828;28;96880;-59
2022/09/17 17:13:09;;;;;;;;;;;;;;;13.52;78.00;96195.69;10366223;28;97049;-59
2022/09/17 17:18:12;;;;;;;;;;;;;;;12.96;77.23;96213.94;10375367;28;96795;-60
2022/09/17 17:23:14;;;;;;;;;;;;;;;12.55;77.14;96218.28;10374797;28;97285;-60
2022/09/17 17:28:18;;;;;;;;;;;;;;;12.09;77.25;96216.84;10372696;28;96768;-59
2022/09/17 17:33:21;;;;;;;;;;;;;;;11.88;77.37;96235.56;10388365;28;96851;-60
2022/09/17 17:38:23;;;;;;;;;;;;;;;11.73;77.30;96222.22;10391920;28;97367;-59
2022/09/17 17:43:27;;;;;;;;;;;;;;;11.51;77.92;96223.53;10395491;28;97257;-59
2022/09/17 17:48:29;;;;;;;;;;;;;;;11.36;78.70;96239.00;10396346;28;97085;-59
2022/09/17 17:53:32;;;;;;;;;;;;;;;11.31;79.08;96241.25;10396400;28;98715;-60
2022/09/17 17:58:37;;;;;;;;;;;;;;;11.22;79.06;96244.72;10395398;28;97174;-60
2022/09/17 18:03:39;;;;;;;;;;;;;;;11.09;79.73;96252.16;10396512;27;96888;-59
2022/09/17 18:08:43;;;;;;;;;;;;;;;10.99;79.61;96258.25;10391094;28;96810;-60
2022/09/17 18:13:50;;;;;;;;;;;;;;;10.95;79.88;96254.31;10394306;28;96936;-59
2022/09/17 18:18:55;;;;;;;;;;;;;;;10.97;80.83;96264.63;10391787;28;96858;-59
2022/09/17 18:23:58;;;;;;;;;;;;;;;10.87;81.13;96256.84;10390601;28;96882;-59
2022/09/17 18:29:01;;;;;;;;;;;;;;;10.83;81.17;96268.56;10393516;28;97003;-59
2022/09/17 18:34:10;;;;;;;;;;;;;;;10.75;82.12;96273.72;10392900;28;96797;-59
2022/09/17 18:39:14;;;;;;;;;;;;;;;10.69;82.35;96274.31;10390999;28;96921;-61
2022/09/17 18:44:38;;;;;;;;;;;;;;;10.60;83.00;96287.28;10393357;28;97036;-59
2022/09/17 18:49:40;;;;;;;;;;;;;;;10.58;82.75;96277.94;10395905;28;97563;-60
2022/09/17 18:54:44;;;;;;;;;;;;;;;10.49;83.42;96278.81;10387987;28;97797;-60
2022/09/17 18:59:48;;;;;;;;;;;;;;;10.34;84.61;96287.16;10390810;28;97326;-59
2022/09/17 19:04:51;;;;;;;;;;;;;;;10.19;85.62;96294.63;10395485;28;96780;-59
2022/09/17 19:09:53;;;;;;;;;;;;;;;10.05;86.43;96297.72;10389460;28;96987;-59
2022/09/17 19:14:57;;;;;;;;;;;;;;;9.92;87.20;96307.63;10393596;28;97116;-59
2022/09/17 19:20:00;;;;;;;;;;;;;;;9.82;88.02;96312.91;10392127;28;97084;-59
2022/09/17 19:25:02;;;;;;;;;;;;;;;9.68;89.03;96311.56;10384682;28;97073;-59
2022/09/17 19:30:07;;;;;;;;;;;;;;;9.56;89.90;96317.88;10392119;27;98122;-59
2022/09/17 19:35:10;;;;;;;;;;;;;;;9.41;91.24;96315.66;10392771;28;96786;-59
2022/09/17 19:40:12;;;;;;;;;;;;;;;9.34;91.99;96330.22;10374378;28;98204;-60
2022/09/17 19:45:16;;;;;;;;;;;;;;;9.20;92.78;96333.25;10387356;28;97276;-59
2022/09/17 19:50:19;;;;;;;;;;;;;;;9.00;94.55;96322.81;10389794;28;97283;-60
2022/09/17 19:55:23;;;;;;;;;;;;;;;8.96;94.85;96325.81;10386204;28;97681;-59
2022/09/17 20:00:27;;;;;;;;;;;;;;;8.89;94.82;96336.75;10391920;28;97414;-59
2022/09/17 20:05:29;;;;;;;;;;;;;;;8.75;96.16;96344.16;10385816;28;96815;-60
2022/09/17 20:10:35;;;;;;;;;;;;;;;8.49;98.48;96342.84;10386780;28;97018;-61
2022/09/17 20:15:39;;;;;;;;;;;;;;;8.31;99.60;96347.03;10385858;28;98349;-60
2022/09/17 20:20:42;;;;;;;;;;;;;;;8.27;99.86;96346.44;10385483;28;98066;-61
2022/09/17 20:25:51;;;;;;;;;;;;;;;8.21;100.00;96352.19;10356510;28;96852;-61
2022/09/17 20:31:00;;;;;;;;;;;;;;;8.20;99.91;96349.72;10344279;28;96747;-61
2022/09/17 20:36:05;;;;;;;;;;;;;;;8.13;100.00;96350.25;10400608;28;98212;-60
2022/09/17 20:41:09;;;;;;;;;;;;;;;8.08;100.00;96356.78;10346806;28;96786;-61
2022/09/17 20:46:13;;;;;;;;;;;;;;;7.92;100.00;96362.44;10395866;27;97378;-60
2022/09/17 20:51:17;;;;;;;;;;;;;;;7.83;100.00;96358.84;10407642;28;96723;-60
2022/09/17 20:56:21;;;;;;;;;;;;;;;7.81;100.00;96358.16;10364484;28;98076;-61
2022/09/17 21:01:30;;;;;;;;;;;;;;;7.71;100.00;96359.84;10362545;28;98116;-61
2022/09/17 21:06:35;;;;;;;;;;;;;;;7.62;100.00;96358.84;10406276;28;96632;-61
2022/09/17 21:11:38;;;;;;;;;;;;;;;7.38;100.00;96370.28;10362117;28;97489;-61
2022/09/17 21:16:42;;;;;;;;;;;;;;;7.27;100.00;96374.69;10341539;28;96979;-60
2022/09/17 21:21:44;;;;;;;;;;;;;;;7.24;100.00;96377.56;10395573;28;97608;-60
2022/09/17 21:26:48;;;;;;;;;;;;;;;7.02;100.00;96372.31;10378292;28;98522;-60
2022/09/17 21:31:53;;;;;;;;;;;;;;;6.93;100.00;96374.78;10382946;28;96835;-61
2022/09/17 21:36:55;;;;;;;;;;;;;;;6.84;100.00;96371.16;10376114;28;97101;-61
2022/09/17 21:41:58;;;;;;;;;;;;;;;6.65;100.00;96379.56;10372588;28;97199;-61
2022/09/17 21:47:02;;;;;;;;;;;;;;;6.61;100.00;96380.75;10375313;28;97009;-61
2022/09/17 21:52:04;;;;;;;;;;;;;;;6.60;100.00;96379.91;10369572;28;96934;-60
2022/09/17 21:57:07;;;;;;;;;;;;;;;6.59;100.00;96380.03;10371776;28;98491;-61
2022/09/17 22:02:11;;;;;;;;;;;;;;;6.42;100.00;96384.75;10378595;28;96683;-60
2022/09/17 22:07:13;;;;;;;;;;;;;;;6.36;100.00;96387.81;10374008;28;97429;-61
2022/09/17 22:12:16;;;;;;;;;;;;;;;6.31;100.00;96376.97;10353461;28;96783;-61
2022/09/17 22:17:20;;;;;;;;;;;;;;;6.18;100.00;96386.66;10371501;28;96799;-61
2022/09/17 22:22:22;;;;;;;;;;;;;;;6.13;100.00;96376.63;10368918;28;96868;-60
2022/09/17 22:27:25;;;;;;;;;;;;;;;6.15;100.00;96377.31;10372478;28;97217;-60
2022/09/17 22:32:29;;;;;;;;;;;;;;;6.13;100.00;96376.63;10392172;28;96883;-61
2022/09/17 22:37:31;;;;;;;;;;;;;;;6.14;100.00;96372.25;10377573;28;98457;-61
2022/09/17 22:42:34;;;;;;;;;;;;;;;6.04;100.00;96357.38;10363732;28;97840;-61
2022/09/17 22:47:39;;;;;;;;;;;;;;;6.05;100.00;96363.41;10367704;28;98748;-61
2022/09/17 22:52:42;;;;;;;;;;;;;;;5.95;100.00;96368.47;10392022;28;96928;-61
2022/09/17 22:57:44;;;;;;;;;;;;;;;5.91;100.00;96367.03;10397328;28;97188;-60
2022/09/17 23:02:48;;;;;;;;;;;;;;;5.87;100.00;96363.84;10400259;28;97416;-60
2022/09/17 23:07:51;;;;;;;;;;;;;;;5.81;100.00;96372.09;10387238;28;96808;-61
2022/09/17 23:12:54;;;;;;;;;;;;;;;5.84;100.00;96365.84;10364337;28;96771;-61
2022/09/17 23:17:58;;;;;;;;;;;;;;;5.72;100.00;96368.44;10392639;28;96883;-60
2022/09/17 23:23:00;;;;;;;;;;;;;;;5.74;100.00;96362.28;10375842;28;97767;-61
2022/09/17 23:28:03;;;;;;;;;;;;;;;5.76;100.00;96357.84;10370907;27;97362;-60
2022/09/17 23:33:08;;;;;;;;;;;;;;;5.63;100.00;96350.13;10390197;28;97055;-60
2022/09/17 23:38:10;;;;;;;;;;;;;;;5.58;100.00;96355.66;10397273;27;97001;-60
2022/09/17 23:43:13;;;;;;;;;;;;;;;5.44;100.00;96350.66;10395989;28;96785;-60
2022/09/17 23:48:17;;;;;;;;;;;;;;;5.36;100.00;96350.41;10354485;28;96844;-60
2022/09/17 23:53:19;;;;;;;;;;;;;;;5.21;100.00;96348.00;10390288;28;98016;-59
2022/09/17 23:58:22;;;;;;;;;;;;;;;5.18;100.00;96353.41;10399849;28;97140;-60
